sensor_id;sensor_type;location;lat;lon;timestamp;pressure;altitude;pressure_sealevel;temperature;humidity
11077;BME280;5591;42.626;23.380;2023-04-26T00:02:15;93265.88;;;11.22;100.00
11077;BME280;5591;42.626;23.380;2023-04-26T00:04:42;93258.44;;;11.19;100.00
11077;BME280;5591;42.626;23.380;2023-04-26T00:07:12;93251.66;;;11.05;100.00
11077;BME280;5591;42.626;23.380;2023-04-26T00:09:40;93248.44;;;11.03;100.00
11077;BME280;5591;42.626;23.380;2023-04-26T00:12:08;93242.09;;;10.92;100.00
11077;BME280;5591;42.626;23.380;2023-04-26T00:14:36;93237.53;;;10.81;100.00
11077;BME280;5591;42.626;23.380;2023-04-26T00:17:03;93239.44;;;10.68;100.00
11077;BME280;5591;42.626;23.380;2023-04-26T00:19:30;93223.69;;;10.68;100.00
11077;BME280;5591;42.626;23.380;2023-04-26T00:21:57;93225.56;;;10.61;100.00
11077;BME280;5591;42.626;23.380;2023-04-26T00:24:25;93216.91;;;10.60;100.00
11077;BME280;5591;42.626;23.380;2023-04-26T00:26:53;93215.47;;;10.33;100.00
11077;BME280;5591;42.626;23.380;2023-04-26T00:29:19;93225.13;;;10.64;100.00
11077;BME280;5591;42.626;23.380;2023-04-26T00:31:46;93221.72;;;10.63;100.00
11077;BME280;5591;42.626;23.380;2023-04-26T00:34:13;93225.75;;;10.66;100.00
11077;BME280;5591;42.626;23.380;2023-04-26T00:36:40;93189.56;;;10.43;100.00
11077;BME280;5591;42.626;23.380;2023-04-26T00:39:07;93211.47;;;10.55;100.00
11077;BME280;5591;42.626;23.380;2023-04-26T00:41:36;93213.03;;;10.32;100.00
11077;BME280;5591;42.626;23.380;2023-04-26T00:44:03;93202.63;;;10.50;100.00
11077;BME280;5591;42.626;23.380;2023-04-26T00:46:30;93212.22;;;10.38;100.00
11077;BME280;5591;42.626;23.380;2023-04-26T00:48:57;93209.00;;;10.36;100.00
11077;BME280;5591;42.626;23.380;2023-04-26T00:51:24;93202.94;;;10.35;100.00
11077;BME280;5591;42.626;23.380;2023-04-26T00:53:52;93209.81;;;10.30;100.00
11077;BME280;5591;42.626;23.380;2023-04-26T00:56:20;93197.63;;;10.17;100.00
11077;BME280;5591;42.626;23.380;2023-04-26T00:58:49;93216.97;;;10.16;100.00
11077;BME280;5591;42.626;23.380;2023-04-26T01:01:16;93215.16;;;10.17;100.00
11077;BME280;5591;42.626;23.380;2023-04-26T01:03:44;93216.34;;;10.21;100.00
11077;BME280;5591;42.626;23.380;2023-04-26T01:06:11;93219.63;;;10.10;100.00
11077;BME280;5591;42.626;23.380;2023-04-26T01:08:38;93217.03;;;10.03;100.00
11077;BME280;5591;42.626;23.380;2023-04-26T01:11:06;93223.09;;;10.04;100.00
11077;BME280;5591;42.626;23.380;2023-04-26T01:13:33;93203.25;;;9.71;100.00
11077;BME280;5591;42.626;23.380;2023-04-26T01:16:01;93231.00;;;9.84;100.00
11077;BME280;5591;42.626;23.380;2023-04-26T01:18:28;93214.31;;;9.73;100.00
11077;BME280;5591;42.626;23.380;2023-04-26T01:20:55;93223.59;;;9.75;100.00
11077;BME280;5591;42.626;23.380;2023-04-26T01:23:23;93220.56;;;9.72;100.00
11077;BME280;5591;42.626;23.380;2023-04-26T01:25:51;93207.09;;;9.68;100.00
11077;BME280;5591;42.626;23.380;2023-04-26T01:28:18;93202.94;;;9.48;100.00
11077;BME280;5591;42.626;23.380;2023-04-26T01:30:44;93200.41;;;9.15;100.00
11077;BME280;5591;42.626;23.380;2023-04-26T01:33:11;93202.81;;;9.23;100.00
11077;BME280;5591;42.626;23.380;2023-04-26T01:35:40;93113.34;;;8.82;100.00
11077;BME280;5591;42.626;23.380;2023-04-26T01:38:07;93202.03;;;9.10;100.00
11077;BME280;5591;42.626;23.380;2023-04-26T01:40:35;93200.00;;;9.18;100.00
11077;BME280;5591;42.626;23.380;2023-04-26T01:43:02;93214.28;;;9.22;100.00
11077;BME280;5591;42.626;23.380;2023-04-26T01:45:28;93205.22;;;9.25;100.00
11077;BME280;5591;42.626;23.380;2023-04-26T01:47:56;93220.91;;;9.31;100.00
11077;BME280;5591;42.626;23.380;2023-04-26T01:50:23;93217.06;;;9.47;100.00
11077;BME280;5591;42.626;23.380;2023-04-26T01:52:50;93219.78;;;9.71;100.00
11077;BME280;5591;42.626;23.380;2023-04-26T01:55:17;93215.75;;;9.69;100.00
11077;BME280;5591;42.626;23.380;2023-04-26T01:57:45;93213.78;;;9.58;100.00
11077;BME280;5591;42.626;23.380;2023-04-26T02:00:12;93204.84;;;9.78;100.00
11077;BME280;5591;42.626;23.380;2023-04-26T02:02:39;93210.69;;;9.73;100.00
11077;BME280;5591;42.626;23.380;2023-04-26T02:05:09;93204.44;;;9.81;100.00
11077;BME280;5591;42.626;23.380;2023-04-26T02:07:37;93200.59;;;9.77;100.00
11077;BME280;5591;42.626;23.380;2023-04-26T02:10:05;93204.63;;;9.79;100.00
11077;BME280;5591;42.626;23.380;2023-04-26T02:12:32;93198.41;;;9.74;100.00
11077;BME280;5591;42.626;23.380;2023-04-26T02:15:00;93208.28;;;9.72;100.00
11077;BME280;5591;42.626;23.380;2023-04-26T02:17:26;93197.03;;;9.65;100.00
11077;BME280;5591;42.626;23.380;2023-04-26T02:19:54;93195.81;;;9.68;100.00
11077;BME280;5591;42.626;23.380;2023-04-26T02:22:20;93194.25;;;9.60;100.00
11077;BME280;5591;42.626;23.380;2023-04-26T02:24:49;93148.00;;;9.35;100.00
11077;BME280;5591;42.626;23.380;2023-04-26T02:27:17;93204.56;;;9.49;100.00
11077;BME280;5591;42.626;23.380;2023-04-26T02:29:44;93205.97;;;9.45;100.00
11077;BME280;5591;42.626;23.380;2023-04-26T02:32:12;93180.00;;;9.43;100.00
11077;BME280;5591;42.626;23.380;2023-04-26T02:34:39;93210.16;;;9.59;100.00
11077;BME280;5591;42.626;23.380;2023-04-26T02:37:07;93210.16;;;9.59;100.00
11077;BME280;5591;42.626;23.380;2023-04-26T02:39:34;93205.06;;;9.77;100.00
11077;BME280;5591;42.626;23.380;2023-04-26T02:42:01;93206.78;;;9.95;100.00
11077;BME280;5591;42.626;23.380;2023-04-26T02:44:28;93193.03;;;10.00;100.00
11077;BME280;5591;42.626;23.380;2023-04-26T02:46:56;93197.72;;;9.91;100.00
11077;BME280;5591;42.626;23.380;2023-04-26T02:49:24;93188.34;;;10.15;100.00
11077;BME280;5591;42.626;23.380;2023-04-26T02:51:51;93164.19;;;10.00;100.00
11077;BME280;5591;42.626;23.380;2023-04-26T02:54:18;93178.53;;;10.04;100.00
11077;BME280;5591;42.626;23.380;2023-04-26T02:56:45;93185.50;;;9.73;100.00
11077;BME280;5591;42.626;23.380;2023-04-26T02:59:12;93172.81;;;9.76;100.00
11077;BME280;5591;42.626;23.380;2023-04-26T03:01:38;93186.06;;;9.87;100.00
11077;BME280;5591;42.626;23.380;2023-04-26T03:04:05;93185.66;;;9.84;100.00
11077;BME280;5591;42.626;23.380;2023-04-26T03:06:34;93181.88;;;9.80;100.00
11077;BME280;5591;42.626;23.380;2023-04-26T03:09:00;93190.88;;;9.90;100.00
11077;BME280;5591;42.626;23.380;2023-04-26T03:11:27;93183.56;;;9.99;100.00
11077;BME280;5591;42.626;23.380;2023-04-26T03:13:54;93208.38;;;10.03;100.00
11077;BME280;5591;42.626;23.380;2023-04-26T03:16:21;93180.34;;;9.97;100.00
11077;BME280;5591;42.626;23.380;2023-04-26T03:18:48;93089.72;;;9.52;100.00
11077;BME280;5591;42.626;23.380;2023-04-26T03:21:15;93173.06;;;10.12;100.00
11077;BME280;5591;42.626;23.380;2023-04-26T03:23:43;93185.59;;;10.03;100.00
11077;BME280;5591;42.626;23.380;2023-04-26T03:26:10;93188.59;;;10.07;100.00
11077;BME280;5591;42.626;23.380;2023-04-26T03:28:37;93185.91;;;9.76;100.00
11077;BME280;5591;42.626;23.380;2023-04-26T03:31:04;93189.13;;;10.22;100.00
11077;BME280;5591;42.626;23.380;2023-04-26T03:33:31;93185.72;;;10.15;100.00
11077;BME280;5591;42.626;23.380;2023-04-26T03:35:57;93171.41;;;10.11;100.00
11077;BME280;5591;42.626;23.380;2023-04-26T03:38:24;93190.00;;;10.40;100.00
11077;BME280;5591;42.626;23.380;2023-04-26T03:40:52;93179.72;;;10.39;100.00
11077;BME280;5591;42.626;23.380;2023-04-26T03:43:19;93183.19;;;10.33;100.00
11077;BME280;5591;42.626;23.380;2023-04-26T03:45:48;93185.09;;;10.50;100.00
11077;BME280;5591;42.626;23.380;2023-04-26T03:48:15;93192.03;;;10.63;100.00
11077;BME280;5591;42.626;23.380;2023-04-26T03:50:42;93179.25;;;10.73;100.00
11077;BME280;5591;42.626;23.380;2023-04-26T03:53:10;93196.81;;;10.97;100.00
11077;BME280;5591;42.626;23.380;2023-04-26T03:55:37;93192.09;;;11.05;100.00
11077;BME280;5591;42.626;23.380;2023-04-26T03:58:05;93118.63;;;10.56;100.00
11077;BME280;5591;42.626;23.380;2023-04-26T04:00:33;93190.28;;;11.24;100.00
11077;BME280;5591;42.626;23.380;2023-04-26T04:03:00;93187.81;;;11.29;100.00
11077;BME280;5591;42.626;23.380;2023-04-26T04:05:27;93194.84;;;11.53;100.00
11077;BME280;5591;42.626;23.380;2023-04-26T04:07:54;93209.81;;;11.70;100.00
11077;BME280;5591;42.626;23.380;2023-04-26T04:10:21;93155.88;;;11.32;100.00
11077;BME280;5591;42.626;23.380;2023-04-26T04:12:48;93217.06;;;11.75;100.00
11077;BME280;5591;42.626;23.380;2023-04-26T04:15:17;93214.56;;;11.80;100.00
11077;BME280;5591;42.626;23.380;2023-04-26T04:17:44;93220.16;;;12.01;100.00
11077;BME280;5591;42.626;23.380;2023-04-26T04:20:11;93201.31;;;12.04;100.00
11077;BME280;5591;42.626;23.380;2023-04-26T04:22:38;93199.91;;;12.02;100.00
11077;BME280;5591;42.626;23.380;2023-04-26T04:25:06;93212.78;;;11.92;100.00
11077;BME280;5591;42.626;23.380;2023-04-26T04:27:33;93206.41;;;12.17;100.00
11077;BME280;5591;42.626;23.380;2023-04-26T04:30:01;93222.78;;;12.19;100.00
11077;BME280;5591;42.626;23.380;2023-04-26T04:32:30;93148.56;;;11.52;100.00
11077;BME280;5591;42.626;23.380;2023-04-26T04:34:58;93226.56;;;12.23;100.00
11077;BME280;5591;42.626;23.380;2023-04-26T04:37:25;93217.78;;;12.70;100.00
11077;BME280;5591;42.626;23.380;2023-04-26T04:39:53;93232.38;;;12.54;100.00
11077;BME280;5591;42.626;23.380;2023-04-26T04:42:20;93229.84;;;12.48;100.00
11077;BME280;5591;42.626;23.380;2023-04-26T04:44:46;93229.13;;;12.82;100.00
11077;BME280;5591;42.626;23.380;2023-04-26T04:47:14;93245.84;;;12.76;100.00
11077;BME280;5591;42.626;23.380;2023-04-26T04:49:43;93228.66;;;12.62;100.00
11077;BME280;5591;42.626;23.380;2023-04-26T04:52:10;93221.59;;;12.74;100.00
11077;BME280;5591;42.626;23.380;2023-04-26T04:54:37;93199.69;;;12.62;100.00
11077;BME280;5591;42.626;23.380;2023-04-26T04:57:04;93237.44;;;12.56;100.00
11077;BME280;5591;42.626;23.380;2023-04-26T04:59:31;93233.78;;;12.57;100.00
11077;BME280;5591;42.626;23.380;2023-04-26T05:01:58;93227.56;;;12.92;100.00
11077;BME280;5591;42.626;23.380;2023-04-26T05:04:24;93232.13;;;12.85;100.00
11077;BME280;5591;42.626;23.380;2023-04-26T05:06:52;93225.00;;;12.74;100.00
11077;BME280;5591;42.626;23.380;2023-04-26T05:09:19;93236.56;;;13.14;100.00
11077;BME280;5591;42.626;23.380;2023-04-26T05:11:46;93211.34;;;11.96;100.00
11077;BME280;5591;42.626;23.380;2023-04-26T05:14:13;93236.59;;;12.15;100.00
11077;BME280;5591;42.626;23.380;2023-04-26T05:16:40;93211.56;;;12.24;100.00
11077;BME280;5591;42.626;23.380;2023-04-26T05:19:07;93226.28;;;12.13;100.00
11077;BME280;5591;42.626;23.380;2023-04-26T05:21:34;93245.38;;;12.38;100.00
11077;BME280;5591;42.626;23.380;2023-04-26T05:24:02;93224.81;;;12.46;100.00
11077;BME280;5591;42.626;23.380;2023-04-26T05:26:29;93248.94;;;12.73;100.00
11077;BME280;5591;42.626;23.380;2023-04-26T05:28:56;93256.59;;;12.74;100.00
11077;BME280;5591;42.626;23.380;2023-04-26T05:31:22;93248.53;;;12.58;100.00
11077;BME280;5591;42.626;23.380;2023-04-26T05:33:50;93243.31;;;13.10;100.00
11077;BME280;5591;42.626;23.380;2023-04-26T05:36:17;93253.19;;;12.74;100.00
11077;BME280;5591;42.626;23.380;2023-04-26T05:38:44;93248.09;;;12.61;100.00
11077;BME280;5591;42.626;23.380;2023-04-26T05:41:13;93243.69;;;12.73;100.00
11077;BME280;5591;42.626;23.380;2023-04-26T05:43:43;93244.78;;;13.06;100.00
11077;BME280;5591;42.626;23.380;2023-04-26T05:46:10;93248.84;;;13.43;100.00
11077;BME280;5591;42.626;23.380;2023-04-26T05:48:36;93239.75;;;12.64;100.00
11077;BME280;5591;42.626;23.380;2023-04-26T05:51:04;93231.63;;;12.65;100.00
11077;BME280;5591;42.626;23.380;2023-04-26T05:53:30;93264.31;;;12.58;100.00
11077;BME280;5591;42.626;23.380;2023-04-26T05:55:58;93260.31;;;12.85;100.00
11077;BME280;5591;42.626;23.380;2023-04-26T05:58:26;93254.53;;;13.17;100.00
11077;BME280;5591;42.626;23.380;2023-04-26T06:00:53;93253.75;;;13.51;100.00
11077;BME280;5591;42.626;23.380;2023-04-26T06:03:20;93249.84;;;13.88;100.00
11077;BME280;5591;42.626;23.380;2023-04-26T06:05:47;93245.81;;;13.05;100.00
11077;BME280;5591;42.626;23.380;2023-04-26T06:08:13;93246.31;;;13.37;100.00
11077;BME280;5591;42.626;23.380;2023-04-26T06:10:40;93248.59;;;13.91;100.00
11077;BME280;5591;42.626;23.380;2023-04-26T06:13:07;93242.75;;;13.66;100.00
11077;BME280;5591;42.626;23.380;2023-04-26T06:15:35;93220.72;;;13.83;100.00
11077;BME280;5591;42.626;23.380;2023-04-26T06:18:03;93259.31;;;14.52;100.00
11077;BME280;5591;42.626;23.380;2023-04-26T06:20:30;93239.88;;;13.56;100.00
11077;BME280;5591;42.626;23.380;2023-04-26T06:22:57;93257.31;;;13.34;100.00
11077;BME280;5591;42.626;23.380;2023-04-26T06:25:24;93262.66;;;14.08;100.00
11077;BME280;5591;42.626;23.380;2023-04-26T06:27:51;93255.41;;;14.15;100.00
11077;BME280;5591;42.626;23.380;2023-04-26T06:30:18;93163.38;;;13.28;100.00
11077;BME280;5591;42.626;23.380;2023-04-26T06:32:46;93250.13;;;13.52;100.00
11077;BME280;5591;42.626;23.380;2023-04-26T06:35:13;93240.50;;;14.09;100.00
11077;BME280;5591;42.626;23.380;2023-04-26T06:37:40;93150.19;;;14.46;100.00
11077;BME280;5591;42.626;23.380;2023-04-26T06:40:10;93262.50;;;14.37;100.00
11077;BME280;5591;42.626;23.380;2023-04-26T06:42:40;93247.78;;;13.90;100.00
11077;BME280;5591;42.626;23.380;2023-04-26T06:45:08;93254.91;;;13.44;100.00
11077;BME280;5591;42.626;23.380;2023-04-26T06:47:35;93266.38;;;12.56;100.00
11077;BME280;5591;42.626;23.380;2023-04-26T06:50:04;93253.44;;;12.84;100.00
11077;BME280;5591;42.626;23.380;2023-04-26T06:52:31;93262.97;;;12.96;100.00
11077;BME280;5591;42.626;23.380;2023-04-26T06:55:00;93266.34;;;12.85;100.00
11077;BME280;5591;42.626;23.380;2023-04-26T06:57:27;93256.59;;;12.16;100.00
11077;BME280;5591;42.626;23.380;2023-04-26T06:59:54;93268.69;;;12.34;100.00
11077;BME280;5591;42.626;23.380;2023-04-26T07:02:21;93270.25;;;12.53;100.00
11077;BME280;5591;42.626;23.380;2023-04-26T07:04:48;93277.44;;;12.76;100.00
11077;BME280;5591;42.626;23.380;2023-04-26T07:07:17;93255.22;;;13.01;100.00
11077;BME280;5591;42.626;23.380;2023-04-26T07:09:43;93266.34;;;13.95;100.00
11077;BME280;5591;42.626;23.380;2023-04-26T07:12:10;93271.59;;;14.07;100.00
11077;BME280;5591;42.626;23.380;2023-04-26T07:14:38;93279.41;;;13.21;100.00
11077;BME280;5591;42.626;23.380;2023-04-26T07:17:05;93268.53;;;13.64;100.00
11077;BME280;5591;42.626;23.380;2023-04-26T07:19:32;93310.53;;;13.01;100.00
11077;BME280;5591;42.626;23.380;2023-04-26T07:21:59;93283.53;;;12.88;100.00
11077;BME280;5591;42.626;23.380;2023-04-26T07:24:28;93274.25;;;12.85;100.00
11077;BME280;5591;42.626;23.380;2023-04-26T07:26:55;93268.56;;;13.75;100.00
11077;BME280;5591;42.626;23.380;2023-04-26T07:29:22;93265.03;;;14.21;100.00
11077;BME280;5591;42.626;23.380;2023-04-26T07:31:49;93286.16;;;14.21;95.69
11077;BME280;5591;42.626;23.380;2023-04-26T07:34:15;93286.75;;;13.77;90.82
11077;BME280;5591;42.626;23.380;2023-04-26T07:36:42;93283.09;;;14.01;85.87
11077;BME280;5591;42.626;23.380;2023-04-26T07:39:09;93277.19;;;14.33;87.33
11077;BME280;5591;42.626;23.380;2023-04-26T07:41:37;93288.13;;;14.14;85.79
11077;BME280;5591;42.626;23.380;2023-04-26T07:44:04;93260.78;;;14.31;85.09
11077;BME280;5591;42.626;23.380;2023-04-26T07:46:32;93280.47;;;14.80;81.65
11077;BME280;5591;42.626;23.380;2023-04-26T07:48:58;93283.78;;;14.19;80.22
11077;BME280;5591;42.626;23.380;2023-04-26T07:51:25;93286.28;;;14.26;83.10
11077;BME280;5591;42.626;23.380;2023-04-26T07:53:52;93285.47;;;14.02;84.91
11077;BME280;5591;42.626;23.380;2023-04-26T07:56:20;93232.47;;;13.41;81.46
11077;BME280;5591;42.626;23.380;2023-04-26T07:58:49;93246.09;;;12.86;87.69
11077;BME280;5591;42.626;23.380;2023-04-26T08:01:16;93306.50;;;12.69;92.87
11077;BME280;5591;42.626;23.380;2023-04-26T08:03:43;93287.28;;;13.10;89.49
11077;BME280;5591;42.626;23.380;2023-04-26T08:06:10;93287.56;;;13.43;88.61
11077;BME280;5591;42.626;23.380;2023-04-26T08:08:37;93294.09;;;13.52;88.76
11077;BME280;5591;42.626;23.380;2023-04-26T08:11:08;93303.88;;;12.81;89.41
11077;BME280;5591;42.626;23.380;2023-04-26T08:13:35;93307.50;;;13.39;86.39
11077;BME280;5591;42.626;23.380;2023-04-26T08:16:04;93280.81;;;13.35;90.03
11077;BME280;5591;42.626;23.380;2023-04-26T08:18:31;93312.41;;;13.24;86.20
11077;BME280;5591;42.626;23.380;2023-04-26T08:20:58;93307.84;;;13.54;82.92
11077;BME280;5591;42.626;23.380;2023-04-26T08:23:25;93290.78;;;13.91;81.53
11077;BME280;5591;42.626;23.380;2023-04-26T08:25:52;93302.69;;;13.70;88.05
11077;BME280;5591;42.626;23.380;2023-04-26T08:28:19;93301.81;;;13.53;85.18
11077;BME280;5591;42.626;23.380;2023-04-26T08:30:46;93292.97;;;13.59;88.58
11077;BME280;5591;42.626;23.380;2023-04-26T08:33:14;93204.94;;;13.03;89.50
11077;BME280;5591;42.626;23.380;2023-04-26T08:35:43;93283.78;;;13.85;87.34
11077;BME280;5591;42.626;23.380;2023-04-26T08:38:10;93292.16;;;13.82;83.21
11077;BME280;5591;42.626;23.380;2023-04-26T08:40:37;93295.78;;;14.15;82.82
11077;BME280;5591;42.626;23.380;2023-04-26T08:43:03;93304.09;;;13.73;85.25
11077;BME280;5591;42.626;23.380;2023-04-26T08:45:33;93309.66;;;13.30;87.14
11077;BME280;5591;42.626;23.380;2023-04-26T08:48:05;93308.00;;;13.82;85.12
11077;BME280;5591;42.626;23.380;2023-04-26T08:50:35;93305.91;;;13.49;85.91
11077;BME280;5591;42.626;23.380;2023-04-26T08:53:04;93322.06;;;14.33;85.69
11077;BME280;5591;42.626;23.380;2023-04-26T08:55:32;93312.00;;;14.07;85.22
11077;BME280;5591;42.626;23.380;2023-04-26T08:58:01;93238.00;;;14.02;77.92
11077;BME280;5591;42.626;23.380;2023-04-26T09:00:29;93303.06;;;14.87;77.74
11077;BME280;5591;42.626;23.380;2023-04-26T09:02:56;93300.81;;;14.40;78.29
11077;BME280;5591;42.626;23.380;2023-04-26T09:05:23;93303.69;;;14.15;80.17
11077;BME280;5591;42.626;23.380;2023-04-26T09:07:55;93313.25;;;13.93;80.63
11077;BME280;5591;42.626;23.380;2023-04-26T09:10:23;93312.19;;;14.68;76.47
11077;BME280;5591;42.626;23.380;2023-04-26T09:12:51;93282.28;;;14.12;76.64
11077;BME280;5591;42.626;23.380;2023-04-26T09:15:19;93330.81;;;14.22;79.75
11077;BME280;5591;42.626;23.380;2023-04-26T09:17:47;93331.97;;;13.69;79.01
11077;BME280;5591;42.626;23.380;2023-04-26T09:20:20;93319.91;;;14.58;76.21
11077;BME280;5591;42.626;23.380;2023-04-26T09:22:48;93317.13;;;14.76;72.86
11077;BME280;5591;42.626;23.380;2023-04-26T09:25:18;93319.00;;;14.25;75.87
11077;BME280;5591;42.626;23.380;2023-04-26T09:27:45;93311.50;;;14.10;81.31
11077;BME280;5591;42.626;23.380;2023-04-26T09:30:13;93309.81;;;14.67;74.25
11077;BME280;5591;42.626;23.380;2023-04-26T09:32:47;93321.53;;;14.87;71.34
11077;BME280;5591;42.626;23.380;2023-04-26T09:35:26;93315.06;;;14.94;68.50
11077;BME280;5591;42.626;23.380;2023-04-26T09:37:54;93314.66;;;15.14;71.36
11077;BME280;5591;42.626;23.380;2023-04-26T09:40:24;93319.69;;;15.76;68.03
11077;BME280;5591;42.626;23.380;2023-04-26T09:43:02;93307.28;;;15.44;65.61
11077;BME280;5591;42.626;23.380;2023-04-26T09:45:30;93318.63;;;15.44;68.60
11077;BME280;5591;42.626;23.380;2023-04-26T09:48:16;93325.34;;;14.91;70.34
11077;BME280;5591;42.626;23.380;2023-04-26T09:50:44;93324.47;;;14.74;68.69
11077;BME280;5591;42.626;23.380;2023-04-26T09:53:23;93306.78;;;14.35;71.44
11077;BME280;5591;42.626;23.380;2023-04-26T09:55:52;93323.84;;;14.84;66.69
11077;BME280;5591;42.626;23.380;2023-04-26T09:58:19;93297.50;;;15.16;65.38
11077;BME280;5591;42.626;23.380;2023-04-26T10:00:49;93315.69;;;15.13;66.22
11077;BME280;5591;42.626;23.380;2023-04-26T10:03:17;93302.69;;;15.89;63.01
11077;BME280;5591;42.626;23.380;2023-04-26T10:05:45;93321.00;;;15.29;63.54
11077;BME280;5591;42.626;23.380;2023-04-26T10:08:12;93311.59;;;15.22;64.60
11077;BME280;5591;42.626;23.380;2023-04-26T10:10:40;93278.63;;;15.74;61.03
11077;BME280;5591;42.626;23.380;2023-04-26T10:13:10;93223.59;;;15.21;63.06
11077;BME280;5591;42.626;23.380;2023-04-26T10:15:38;93308.34;;;15.97;62.71
11077;BME280;5591;42.626;23.380;2023-04-26T10:18:05;93299.28;;;16.10;61.01
11077;BME280;5591;42.626;23.380;2023-04-26T10:20:32;93270.41;;;16.08;57.72
11077;BME280;5591;42.626;23.380;2023-04-26T10:23:02;93293.41;;;15.70;58.80
11077;BME280;5591;42.626;23.380;2023-04-26T10:25:34;93301.09;;;15.88;58.08
11077;BME280;5591;42.626;23.380;2023-04-26T10:28:02;93301.00;;;15.66;58.93
11077;BME280;5591;42.626;23.380;2023-04-26T10:30:31;93221.75;;;15.93;57.67
11077;BME280;5591;42.626;23.380;2023-04-26T10:33:15;93289.34;;;16.00;57.75
11077;BME280;5591;42.626;23.380;2023-04-26T10:36:01;93276.50;;;16.09;57.24
11077;BME280;5591;42.626;23.380;2023-04-26T10:38:28;93301.81;;;15.50;56.95
11077;BME280;5591;42.626;23.380;2023-04-26T10:40:55;93243.44;;;14.91;58.72
11077;BME280;5591;42.626;23.380;2023-04-26T10:43:42;93283.88;;;15.36;57.46
11077;BME280;5591;42.626;23.380;2023-04-26T10:46:34;93291.41;;;15.77;57.26
11077;BME280;5591;42.626;23.380;2023-04-26T10:49:12;93295.81;;;15.38;58.17
11077;BME280;5591;42.626;23.380;2023-04-26T10:51:39;93273.78;;;14.89;58.29
11077;BME280;5591;42.626;23.380;2023-04-26T10:54:06;93277.69;;;15.30;57.61
11077;BME280;5591;42.626;23.380;2023-04-26T10:56:51;93272.84;;;16.53;55.14
11077;BME280;5591;42.626;23.380;2023-04-26T10:59:20;93279.81;;;16.59;55.26
11077;BME280;5591;42.626;23.380;2023-04-26T11:01:48;93279.91;;;16.69;53.49
11077;BME280;5591;42.626;23.380;2023-04-26T11:04:15;93279.56;;;16.60;52.93
11077;BME280;5591;42.626;23.380;2023-04-26T11:06:49;93289.97;;;16.07;52.62
11077;BME280;5591;42.626;23.380;2023-04-26T11:09:31;93279.56;;;16.60;52.89
11077;BME280;5591;42.626;23.380;2023-04-26T11:11:58;93278.16;;;16.53;52.04
11077;BME280;5591;42.626;23.380;2023-04-26T11:14:25;93285.59;;;15.96;53.60
11077;BME280;5591;42.626;23.380;2023-04-26T11:16:54;93290.00;;;16.45;52.92
11077;BME280;5591;42.626;23.380;2023-04-26T11:19:21;93293.84;;;16.38;51.95
11077;BME280;5591;42.626;23.380;2023-04-26T11:21:48;93282.66;;;17.53;49.89
11077;BME280;5591;42.626;23.380;2023-04-26T11:24:15;93287.94;;;16.74;50.09
11077;BME280;5591;42.626;23.380;2023-04-26T11:26:50;93280.78;;;17.27;49.25
11077;BME280;5591;42.626;23.380;2023-04-26T11:29:17;93281.81;;;16.95;50.12
11077;BME280;5591;42.626;23.380;2023-04-26T11:31:50;93276.56;;;16.52;50.61
11077;BME280;5591;42.626;23.380;2023-04-26T11:34:20;93290.91;;;16.56;50.85
11077;BME280;5591;42.626;23.380;2023-04-26T11:36:50;93252.66;;;16.47;49.83
11077;BME280;5591;42.626;23.380;2023-04-26T11:39:21;93285.78;;;16.97;49.71
11077;BME280;5591;42.626;23.380;2023-04-26T11:41:48;93286.38;;;17.52;48.19
11077;BME280;5591;42.626;23.380;2023-04-26T11:44:18;93230.88;;;16.40;49.32
11077;BME280;5591;42.626;23.380;2023-04-26T11:46:46;93267.97;;;17.19;48.37
11077;BME280;5591;42.626;23.380;2023-04-26T11:49:14;93279.13;;;16.68;49.46
11077;BME280;5591;42.626;23.380;2023-04-26T11:51:45;93256.88;;;16.48;50.21
11077;BME280;5591;42.626;23.380;2023-04-26T11:54:26;93292.00;;;16.60;50.07
11077;BME280;5591;42.626;23.380;2023-04-26T11:56:54;93290.28;;;16.49;48.91
11077;BME280;5591;42.626;23.380;2023-04-26T11:59:24;93289.34;;;16.60;49.13
11077;BME280;5591;42.626;23.380;2023-04-26T12:01:51;93269.59;;;17.47;47.56
11077;BME280;5591;42.626;23.380;2023-04-26T12:04:18;93246.81;;;16.93;48.60
11077;BME280;5591;42.626;23.380;2023-04-26T12:06:46;93274.13;;;17.87;47.91
11077;BME280;5591;42.626;23.380;2023-04-26T12:09:14;93279.06;;;17.69;47.45
11077;BME280;5591;42.626;23.380;2023-04-26T12:11:47;93279.16;;;18.20;45.63
11077;BME280;5591;42.626;23.380;2023-04-26T12:14:14;93262.41;;;16.68;47.42
11077;BME280;5591;42.626;23.380;2023-04-26T12:16:42;93276.47;;;16.25;49.49
11077;BME280;5591;42.626;23.380;2023-04-26T12:19:08;93255.69;;;17.08;48.16
11077;BME280;5591;42.626;23.380;2023-04-26T12:21:40;93252.69;;;17.00;48.01
11077;BME280;5591;42.626;23.380;2023-04-26T12:24:20;93232.22;;;17.22;48.32
11077;BME280;5591;42.626;23.380;2023-04-26T12:26:47;93219.63;;;17.07;48.14
11077;BME280;5591;42.626;23.380;2023-04-26T12:29:14;93249.25;;;16.99;48.36
11077;BME280;5591;42.626;23.380;2023-04-26T12:31:41;93258.69;;;16.64;49.59
11077;BME280;5591;42.626;23.380;2023-04-26T12:34:08;93276.00;;;16.98;48.55
11077;BME280;5591;42.626;23.380;2023-04-26T12:36:35;93272.44;;;16.61;49.17
11077;BME280;5591;42.626;23.380;2023-04-26T12:39:01;93263.34;;;16.57;49.16
11077;BME280;5591;42.626;23.380;2023-04-26T12:41:31;93245.94;;;16.61;49.11
11077;BME280;5591;42.626;23.380;2023-04-26T12:43:58;93269.31;;;17.43;48.07
11077;BME280;5591;42.626;23.380;2023-04-26T12:46:24;93254.97;;;16.65;48.27
11077;BME280;5591;42.626;23.380;2023-04-26T12:48:52;93247.56;;;17.20;47.41
11077;BME280;5591;42.626;23.380;2023-04-26T12:51:19;93200.00;;;15.69;48.71
11077;BME280;5591;42.626;23.380;2023-04-26T12:53:46;93260.59;;;16.47;48.92
11077;BME280;5591;42.626;23.380;2023-04-26T12:56:13;93258.16;;;15.86;49.57
11077;BME280;5591;42.626;23.380;2023-04-26T12:58:42;93255.78;;;17.18;47.59
11077;BME280;5591;42.626;23.380;2023-04-26T13:01:09;93266.06;;;17.36;47.94